Time;durP1;ratioP1;P1;durP2;ratioP2;P2;SDS_P1;SDS_P2;PMS_P1;PMS_P2;Temp;Humidity;BMP_temperature;BMP_pressure;BME280_temperature;BME280_humidity;BME280_pressure;Samples;Min_cycle;Max_cycle;Signal;HPM_P1;HPM_P2
2022/06/11 00:00:20;;;;;;;;;;;;;;;21.87;83.15;101317.00;5048653;28;19928;-66
2022/06/11 00:02:46;;;;;;;;;;;;;;;21.86;83.40;101317.38;5048919;28;19924;-66
2022/06/11 00:05:11;;;;;;;;;;;;;;;21.86;83.23;101320.91;5049293;28;19952;-66
2022/06/11 00:07:37;;;;;;;;;;;;;;;21.87;83.31;101318.97;5049472;28;19940;-66
2022/06/11 00:10:04;;;;;;;;;;;;;;;21.86;83.30;101314.66;5045284;28;20328;-66
2022/06/11 00:12:30;;;;;;;;;;;;;;;21.85;83.18;101316.63;5046938;28;19947;-66
2022/06/11 00:14:59;;;;;;;;;;;;;;;21.77;83.73;101306.94;5049458;28;19924;-66
2022/06/11 00:17:25;;;;;;;;;;;;;;;21.82;83.45;101311.97;5051337;28;20312;-66
2022/06/11 00:19:52;;;;;;;;;;;;;;;21.75;83.85;101311.25;5051391;28;19916;-66
2022/06/11 00:22:18;;;;;;;;;;;;;;;21.78;83.97;101307.69;5050321;28;19921;-66
2022/06/11 00:24:44;;;;;;;;;;;;;;;21.75;84.16;101308.53;5047012;28;19925;-67
2022/06/11 00:27:10;;;;;;;;;;;;;;;21.77;83.74;101311.63;5051463;28;19928;-66
2022/06/11 00:29:36;;;;;;;;;;;;;;;21.74;83.84;101304.25;5048459;28;19921;-66
2022/06/11 00:32:02;;;;;;;;;;;;;;;21.72;83.81;101301.13;5049387;28;19924;-66
2022/06/11 00:34:28;;;;;;;;;;;;;;;21.71;83.52;101300.34;5048566;28;19996;-66
2022/06/11 00:36:53;;;;;;;;;;;;;;;21.69;83.37;101299.22;5045365;28;19916;-66
2022/06/11 00:39:20;;;;;;;;;;;;;;;21.69;82.88;101300.00;5051479;28;19923;-66
2022/06/11 00:41:47;;;;;;;;;;;;;;;21.72;82.42;101298.41;5050669;28;20396;-66
2022/06/11 00:44:14;;;;;;;;;;;;;;;21.74;82.63;101293.28;5048870;28;19927;-67
2022/06/11 00:46:54;;;;;;;;;;;;;;;21.74;82.18;101288.53;5050962;28;19975;-66
2022/06/11 00:49:19;;;;;;;;;;;;;;;21.77;81.38;101292.44;5050333;28;20011;-66
2022/06/11 00:51:46;;;;;;;;;;;;;;;21.73;81.39;101295.22;5047429;28;20015;-66
2022/06/11 00:54:14;;;;;;;;;;;;;;;21.68;82.04;101292.19;5050517;28;19985;-66
2022/06/11 00:56:45;;;;;;;;;;;;;;;21.69;82.24;101288.25;5050274;28;20007;-66
2022/06/11 00:59:16;;;;;;;;;;;;;;;21.69;81.84;101291.75;5050334;28;19916;-66
2022/06/11 01:01:41;;;;;;;;;;;;;;;21.69;81.58;101289.03;5051191;28;19966;-66
2022/06/11 01:04:25;;;;;;;;;;;;;;;21.73;80.72;101288.97;5047971;28;20393;-66
2022/06/11 01:06:56;;;;;;;;;;;;;;;21.69;80.90;101288.25;5048608;28;19999;-66
2022/06/11 01:09:29;;;;;;;;;;;;;;;21.65;81.16;101287.50;5045149;28;19916;-66
2022/06/11 01:11:57;;;;;;;;;;;;;;;21.68;80.63;101283.97;5049941;28;20021;-66
2022/06/11 01:14:41;;;;;;;;;;;;;;;21.69;80.38;101282.75;5049366;28;19964;-66
2022/06/11 01:17:30;;;;;;;;;;;;;;;21.67;80.23;101280.44;5048296;28;19924;-66
2022/06/11 01:20:01;;;;;;;;;;;;;;;21.58;80.55;101277.44;5048304;28;19974;-66
2022/06/11 01:22:27;;;;;;;;;;;;;;;21.54;81.70;101277.47;5044129;28;19930;-66
2022/06/11 01:25:06;;;;;;;;;;;;;;;21.49;82.92;101291.66;5049719;28;20029;-66
2022/06/11 01:27:38;;;;;;;;;;;;;;;21.45;84.25;101290.13;5045981;28;20008;-67
2022/06/11 01:30:08;;;;;;;;;;;;;;;21.53;83.97;101292.38;5048924;28;19954;-66
2022/06/11 01:32:52;;;;;;;;;;;;;;;21.49;85.04;101288.13;5050791;28;19917;-66
2022/06/11 01:35:21;;;;;;;;;;;;;;;21.54;84.24;101298.66;5049371;28;19969;-66
2022/06/11 01:37:49;;;;;;;;;;;;;;;21.54;82.78;101299.41;5045603;28;20391;-67
2022/06/11 01:40:17;;;;;;;;;;;;;;;21.56;82.18;101296.28;5050119;28;20015;-66
2022/06/11 01:42:46;;;;;;;;;;;;;;;21.64;80.84;101292.22;5044779;28;19932;-66
2022/06/11 01:45:17;;;;;;;;;;;;;;;21.69;80.59;101294.50;5046859;28;19955;-66
2022/06/11 01:47:44;;;;;;;;;;;;;;;21.56;82.62;101277.84;5050907;28;19974;-66
2022/06/11 01:50:11;;;;;;;;;;;;;;;21.63;82.73;101268.75;5050681;28;20400;-66
2022/06/11 01:52:44;;;;;;;;;;;;;;;21.58;83.67;101266.47;5050610;28;20023;-66
2022/06/11 01:55:19;;;;;;;;;;;;;;;21.59;84.07;101265.28;5048520;28;19962;-66
2022/06/11 01:58:07;;;;;;;;;;;;;;;21.63;84.37;101257.78;5045689;28;20059;-66
2022/06/11 02:00:35;;;;;;;;;;;;;;;21.54;85.27;101263.00;5042868;28;20007;-67
2022/06/11 02:03:20;;;;;;;;;;;;;;;21.44;86.74;101259.22;5041275;28;19950;-66
2022/06/11 02:05:58;;;;;;;;;;;;;;;21.50;86.32;101260.28;5043707;28;19924;-67
2022/06/11 02:08:29;;;;;;;;;;;;;;;21.48;86.36;101257.22;5047800;28;19916;-66
2022/06/11 02:10:54;;;;;;;;;;;;;;;21.45;86.14;101249.81;5047887;28;19916;-66
2022/06/11 02:13:29;;;;;;;;;;;;;;;21.46;86.02;101242.38;5040056;28;19952;-66
2022/06/11 02:15:58;;;;;;;;;;;;;;;21.44;85.98;101234.56;5047231;28;19916;-66
2022/06/11 02:18:24;;;;;;;;;;;;;;;21.45;85.83;101241.59;5048094;28;19917;-66
2022/06/11 02:20:56;;;;;;;;;;;;;;;21.49;85.37;101239.56;5049201;28;19928;-66
2022/06/11 02:23:53;;;;;;;;;;;;;;;21.45;85.55;101238.84;5045548;28;20004;-66
2022/06/11 02:26:24;;;;;;;;;;;;;;;21.44;85.15;101242.00;5017518;28;20583;-66
2022/06/11 02:28:50;;;;;;;;;;;;;;;21.41;85.22;101242.81;5048575;28;20409;-66
2022/06/11 02:31:17;;;;;;;;;;;;;;;21.41;85.15;101234.59;5048329;28;19925;-66
2022/06/11 02:33:43;;;;;;;;;;;;;;;21.33;85.92;101244.13;5048007;28;19924;-66
2022/06/11 02:36:24;;;;;;;;;;;;;;;21.29;85.32;101238.69;5051203;28;19924;-66
2022/06/11 02:38:50;;;;;;;;;;;;;;;21.32;85.38;101237.88;5053868;28;19956;-66
2022/06/11 02:41:21;;;;;;;;;;;;;;;21.30;85.47;101245.72;5053020;28;19924;-66
2022/06/11 02:43:47;;;;;;;;;;;;;;;21.27;86.03;101238.31;5053744;28;20324;-66
2022/06/11 02:48:57;;;;;;;;;;;;;;;21.24;87.49;101239.16;5048194;28;19924;-67
2022/06/11 02:51:24;;;;;;;;;;;;;;;21.23;87.73;101242.31;5051525;28;19921;-66
2022/06/11 02:53:49;;;;;;;;;;;;;;;21.23;87.65;101239.56;5053604;28;19921;-67
2022/06/11 02:56:15;;;;;;;;;;;;;;;21.22;87.07;101243.47;5050444;28;20066;-67
2022/06/11 02:58:40;;;;;;;;;;;;;;;21.19;86.96;101247.84;5053313;28;19917;-66
2022/06/11 03:01:06;;;;;;;;;;;;;;;21.24;86.80;101241.09;5053226;28;20552;-67
2022/06/11 03:03:31;;;;;;;;;;;;;;;21.29;86.23;101243.41;5051460;28;20014;-67
2022/06/11 03:06:00;;;;;;;;;;;;;;;21.24;85.90;101239.16;5043852;28;20289;-66
2022/06/11 03:08:26;;;;;;;;;;;;;;;21.28;85.78;101245.34;5049912;28;19923;-66
2022/06/11 03:10:54;;;;;;;;;;;;;;;21.24;85.93;101250.09;5045668;28;20019;-66
2022/06/11 03:13:24;;;;;;;;;;;;;;;21.28;85.43;101244.56;5052028;28;19921;-66
2022/06/11 03:15:49;;;;;;;;;;;;;;;21.21;85.35;101244.69;5049811;28;20011;-66
2022/06/11 03:18:14;;;;;;;;;;;;;;;21.19;85.95;101247.84;5051703;28;20000;-66
2022/06/11 03:20:40;;;;;;;;;;;;;;;21.23;86.05;101251.31;5053019;28;19975;-66
2022/06/11 03:23:06;;;;;;;;;;;;;;;21.31;85.53;101250.00;5050649;28;19925;-67
2022/06/11 03:25:32;;;;;;;;;;;;;;;21.30;84.83;101253.94;5045987;28;20378;-66
2022/06/11 03:27:57;;;;;;;;;;;;;;;21.24;84.84;101250.09;5050419;28;19925;-66
2022/06/11 03:30:23;;;;;;;;;;;;;;;21.22;85.60;101254.44;5051341;28;20452;-66
2022/06/11 03:32:48;;;;;;;;;;;;;;;21.22;85.90;101257.19;5052479;28;19917;-67
2022/06/11 03:35:14;;;;;;;;;;;;;;;21.21;86.07;101261.91;5045269;28;19952;-66
2022/06/11 03:37:40;;;;;;;;;;;;;;;21.17;86.73;101258.44;5051621;28;20011;-66
2022/06/11 03:40:06;;;;;;;;;;;;;;;21.23;86.36;101258.75;5052222;28;20008;-67
2022/06/11 03:42:32;;;;;;;;;;;;;;;21.22;86.57;101259.91;5052064;28;19991;-67
2022/06/11 03:44:57;;;;;;;;;;;;;;;21.17;87.08;101254.91;5046811;28;19917;-66
2022/06/11 03:47:22;;;;;;;;;;;;;;;21.20;86.99;101260.34;5052455;28;19923;-66
2022/06/11 03:49:48;;;;;;;;;;;;;;;21.20;87.03;101249.38;5049931;28;19976;-66
2022/06/11 03:52:13;;;;;;;;;;;;;;;21.19;86.88;101253.31;5050332;28;19956;-66
2022/06/11 03:54:39;;;;;;;;;;;;;;;21.19;87.32;101256.06;5072244;22;19951;-71
2022/06/11 03:57:05;;;;;;;;;;;;;;;21.24;86.62;101252.84;5066462;28;19921;-71
2022/06/11 03:59:30;;;;;;;;;;;;;;;21.23;86.24;101248.56;5070936;28;20018;-72
2022/06/11 04:01:56;;;;;;;;;;;;;;;21.18;86.84;101249.00;5070605;28;20355;-71
2022/06/11 04:04:21;;;;;;;;;;;;;;;21.18;87.49;101251.75;5068257;28;19927;-71
2022/06/11 04:06:49;;;;;;;;;;;;;;;21.27;86.73;101256.75;5067994;28;19945;-71
2022/06/11 04:09:16;;;;;;;;;;;;;;;21.21;86.66;101252.91;5060139;28;19917;-70
2022/06/11 04:11:42;;;;;;;;;;;;;;;21.13;87.79;101260.44;5065461;28;19916;-71
2022/06/11 04:14:07;;;;;;;;;;;;;;;21.17;87.84;101250.22;5066829;28;19932;-71
2022/06/11 04:16:33;;;;;;;;;;;;;;;21.16;88.33;101248.66;5055626;28;19916;-72
2022/06/11 04:18:59;;;;;;;;;;;;;;;21.23;88.01;101264.22;5055438;28;20020;-72
2022/06/11 04:21:25;;;;;;;;;;;;;;;21.19;88.58;101256.06;5057844;28;19924;-71
2022/06/11 04:23:53;;;;;;;;;;;;;;;21.20;88.65;101263.09;5061160;28;19950;-72
2022/06/11 04:26:20;;;;;;;;;;;;;;;21.22;88.65;101263.44;5061215;28;19917;-71
2022/06/11 04:28:46;;;;;;;;;;;;;;;21.29;88.31;101255.13;5058587;28;20125;-70
2022/06/11 04:31:14;;;;;;;;;;;;;;;21.26;89.13;101264.19;5061370;28;20427;-71
2022/06/11 04:33:39;;;;;;;;;;;;;;;21.29;89.25;101266.09;5064274;28;19920;-71
2022/06/11 04:36:05;;;;;;;;;;;;;;;21.42;88.28;101266.31;5055708;28;20431;-72
2022/06/11 04:38:30;;;;;;;;;;;;;;;21.41;88.45;101257.31;5053360;28;19920;-70
2022/06/11 04:40:56;;;;;;;;;;;;;;;21.53;87.94;101259.47;5057360;28;19921;-70
2022/06/11 04:43:21;;;;;;;;;;;;;;;21.58;87.59;101262.94;5066635;28;19924;-70
2022/06/11 04:45:47;;;;;;;;;;;;;;;21.63;87.09;101262.47;5052402;28;19917;-71
2022/06/11 04:48:12;;;;;;;;;;;;;;;21.69;86.16;101272.56;5059639;28;19928;-71
2022/06/11 04:50:38;;;;;;;;;;;;;;;21.68;86.55;101262.78;5056296;28;19920;-71
2022/06/11 04:53:03;;;;;;;;;;;;;;;21.78;85.95;101261.06;5064524;28;19920;-71
2022/06/11 04:55:28;;;;;;;;;;;;;;;21.83;85.50;101266.13;5055850;28;20339;-71
2022/06/11 04:57:54;;;;;;;;;;;;;;;21.99;83.81;101272.50;5056329;28;19962;-71
2022/06/11 05:00:21;;;;;;;;;;;;;;;21.99;83.58;101272.50;5059666;28;20311;-71
2022/06/11 05:02:46;;;;;;;;;;;;;;;22.01;83.79;101278.34;5058340;28;19923;-72
2022/06/11 05:05:13;;;;;;;;;;;;;;;22.08;83.86;101266.47;5051141;28;19916;-70
2022/06/11 05:07:39;;;;;;;;;;;;;;;22.21;82.95;101281.16;5059195;28;19955;-71
2022/06/11 05:10:05;;;;;;;;;;;;;;;22.21;82.46;101276.44;5058749;28;19916;-72
2022/06/11 05:12:30;;;;;;;;;;;;;;;22.25;82.12;101282.66;5059934;28;19977;-71
2022/06/11 05:14:55;;;;;;;;;;;;;;;22.76;81.47;101275.84;5059002;28;19923;-70
2022/06/11 05:17:21;;;;;;;;;;;;;;;23.71;77.15;101284.03;5061506;28;19917;-72
2022/06/11 05:19:46;;;;;;;;;;;;;;;24.51;73.75;101275.72;5053152;28;20353;-71
2022/06/11 05:22:12;;;;;;;;;;;;;;;25.05;71.90;101284.06;5060979;28;19970;-70
2022/06/11 05:24:38;;;;;;;;;;;;;;;25.88;66.79;101292.94;5055945;28;19917;-71
2022/06/11 05:27:06;;;;;;;;;;;;;;;-144.12;100.00;72078.50;5061233;28;19948;-72
2022/06/11 05:29:37;;;;;;;;;;;;;;;-144.12;100.00;72078.50;5060797;28;20293;-69
2022/06/11 05:32:03;;;;;;;;;;;;;;;-144.12;100.00;72078.50;5063340;28;20727;-70
2022/06/11 05:34:29;;;;;;;;;;;;;;;-144.12;100.00;72078.50;5057473;28;19946;-69
2022/06/11 05:36:55;;;;;;;;;;;;;;;-144.12;100.00;72078.50;5053352;28;20285;-69
2022/06/11 05:39:20;;;;;;;;;;;;;;;-144.12;100.00;72078.50;5067273;28;19927;-69
2022/06/11 05:41:46;;;;;;;;;;;;;;;-144.12;100.00;72078.50;5057038;28;19920;-71
2022/06/11 05:44:12;;;;;;;;;;;;;;;-144.12;100.00;72078.50;5056500;28;19925;-69
2022/06/11 05:46:37;;;;;;;;;;;;;;;-144.12;100.00;72078.50;5051611;28;19927;-69
2022/06/11 05:49:05;;;;;;;;;;;;;;;-144.12;100.00;72078.50;5056767;28;20316;-69
2022/06/11 05:51:32;;;;;;;;;;;;;;;-144.12;100.00;72078.50;5057806;28;19921;-69
2022/06/11 05:53:59;;;;;;;;;;;;;;;-144.12;100.00;72078.50;5053734;28;19917;-69
2022/06/11 05:56:25;;;;;;;;;;;;;;;-144.12;100.00;72078.50;5066090;28;20399;-69
2022/06/11 05:58:52;;;;;;;;;;;;;;;-144.12;100.00;72078.50;5058113;28;19917;-69
2022/06/11 06:01:21;;;;;;;;;;;;;;;-144.12;100.00;72078.50;5057626;28;20339;-69
2022/06/11 06:03:47;;;;;;;;;;;;;;;-144.12;100.00;72078.50;5061104;28;19935;-69
2022/06/11 06:06:12;;;;;;;;;;;;;;;-144.12;100.00;72078.50;5053568;28;19944;-71
2022/06/11 06:08:38;;;;;;;;;;;;;;;-144.12;100.00;72078.50;5061128;28;19971;-72
2022/06/11 06:11:03;;;;;;;;;;;;;;;-144.12;100.00;72078.50;5059797;28;19970;-68
2022/06/11 06:13:47;;;;;;;;;;;;;;;-144.12;100.00;72078.50;5057324;28;19917;-69
2022/06/11 06:16:17;;;;;;;;;;;;;;;-144.12;100.00;72078.50;5054956;28;19923;-70
2022/06/11 06:18:43;;;;;;;;;;;;;;;-144.12;100.00;72078.50;5061869;28;20012;-69
2022/06/11 06:21:08;;;;;;;;;;;;;;;-144.12;100.00;72078.50;5059276;28;20070;-69
2022/06/11 06:23:34;;;;;;;;;;;;;;;-144.12;100.00;72078.50;5051397;28;19921;-71
2022/06/11 06:26:00;;;;;;;;;;;;;;;-144.12;100.00;72078.50;5060477;28;19936;-69
2022/06/11 06:28:25;;;;;;;;;;;;;;;-144.12;100.00;72078.50;5056924;28;20269;-69
2022/06/11 06:30:51;;;;;;;;;;;;;;;-144.12;100.00;72078.50;5054065;28;20324;-69
2022/06/11 06:33:16;;;;;;;;;;;;;;;-144.12;100.00;72078.50;5056350;28;19968;-69
2022/06/11 06:35:42;;;;;;;;;;;;;;;-144.12;100.00;72078.50;5056208;28;19920;-70
2022/06/11 06:38:07;;;;;;;;;;;;;;;-144.12;100.00;72078.50;5059368;28;19916;-71
2022/06/11 06:40:33;;;;;;;;;;;;;;;-144.12;100.00;72078.50;5056575;28;19916;-69
2022/06/11 06:42:59;;;;;;;;;;;;;;;-144.12;100.00;72078.50;5055239;28;19952;-69
2022/06/11 06:45:24;;;;;;;;;;;;;;;-144.12;100.00;72078.50;5050922;28;20357;-69
2022/06/11 06:47:49;;;;;;;;;;;;;;;-144.12;100.00;72078.50;5059385;28;19920;-69
2022/06/11 06:50:15;;;;;;;;;;;;;;;-144.12;100.00;72078.50;5055854;28;19924;-69
2022/06/11 06:52:40;;;;;;;;;;;;;;;-144.12;100.00;72078.50;5057227;28;19916;-69
2022/06/11 06:55:07;;;;;;;;;;;;;;;-144.12;100.00;72078.50;5065117;28;19991;-70
2022/06/11 06:57:33;;;;;;;;;;;;;;;-144.12;100.00;72078.50;5055504;28;19916;-69
2022/06/11 06:59:59;;;;;;;;;;;;;;;-144.12;100.00;72078.50;5054872;28;19926;-69
2022/06/11 07:02:25;;;;;;;;;;;;;;;-144.12;100.00;72078.50;5050948;28;20305;-69
2022/06/11 07:04:50;;;;;;;;;;;;;;;-144.12;100.00;72078.50;5057319;28;19943;-68
2022/06/11 07:07:16;;;;;;;;;;;;;;;-144.12;100.00;72078.50;5055005;28;19917;-69
2022/06/11 07:09:42;;;;;;;;;;;;;;;-144.12;100.00;72078.50;5053910;28;19916;-69
2022/06/11 07:12:08;;;;;;;;;;;;;;;-144.12;100.00;72078.50;5061007;28;20392;-69
2022/06/11 07:14:33;;;;;;;;;;;;;;;-144.12;100.00;72078.50;5058753;28;20003;-69
2022/06/11 07:17:02;;;;;;;;;;;;;;;-144.12;100.00;72078.50;5054722;28;19923;-69
2022/06/11 07:19:32;;;;;;;;;;;;;;;-144.12;100.00;72078.50;5058673;28;20411;-69
2022/06/11 07:22:01;;;;;;;;;;;;;;;-144.12;100.00;72078.50;5064726;28;20323;-70
2022/06/11 07:24:27;;;;;;;;;;;;;;;-144.12;100.00;72078.50;5063012;28;19928;-69
2022/06/11 07:26:55;;;;;;;;;;;;;;;-144.12;100.00;72078.50;5062884;28;19978;-69
2022/06/11 07:29:22;;;;;;;;;;;;;;;-144.12;100.00;72078.50;5054021;28;19927;-69
2022/06/11 07:31:50;;;;;;;;;;;;;;;-144.12;100.00;72078.50;5056257;28;19921;-69
2022/06/11 07:34:16;;;;;;;;;;;;;;;-144.12;100.00;72078.50;5064298;28;19916;-69
2022/06/11 07:36:41;;;;;;;;;;;;;;;-144.12;100.00;72078.50;5067180;28;19924;-70
2022/06/11 07:39:07;;;;;;;;;;;;;;;-144.12;100.00;72078.50;5065263;28;19917;-71
2022/06/11 07:41:32;;;;;;;;;;;;;;;-144.12;100.00;72078.50;5063765;28;19927;-68
2022/06/11 07:43:58;;;;;;;;;;;;;;;-144.12;100.00;72078.50;5060802;28;20292;-72
2022/06/11 07:46:23;;;;;;;;;;;;;;;-144.12;100.00;72078.50;5067546;28;19940;-69
2022/06/11 07:48:49;;;;;;;;;;;;;;;-144.12;100.00;72078.50;5063260;28;20177;-69
2022/06/11 07:51:18;;;;;;;;;;;;;;;-144.12;100.00;72078.50;5064238;28;19920;-69
2022/06/11 07:53:44;;;;;;;;;;;;;;;-144.12;100.00;72078.50;5061734;28;20324;-69
2022/06/11 07:56:09;;;;;;;;;;;;;;;-144.12;100.00;72078.50;5062109;28;19925;-69
2022/06/11 07:58:35;;;;;;;;;;;;;;;-144.12;100.00;72078.50;5060815;28;19923;-71
2022/06/11 08:01:01;;;;;;;;;;;;;;;-144.12;100.00;72078.50;5065492;28;19920;-69
2022/06/11 08:03:31;;;;;;;;;;;;;;;-144.12;100.00;72078.50;5060039;28;20359;-71
2022/06/11 08:05:56;;;;;;;;;;;;;;;-144.12;100.00;72078.50;5056735;28;19960;-72
2022/06/11 08:08:22;;;;;;;;;;;;;;;-144.12;100.00;72078.50;5060069;28;19964;-70
2022/06/11 08:10:47;;;;;;;;;;;;;;;-144.12;100.00;72078.50;5060416;28;20015;-72
2022/06/11 08:13:13;;;;;;;;;;;;;;;-144.12;100.00;72078.50;5060492;28;19916;-70
2022/06/11 08:15:39;;;;;;;;;;;;;;;-144.12;100.00;72078.50;5058707;28;19917;-69
2022/06/11 08:18:05;;;;;;;;;;;;;;;-144.12;100.00;72078.50;5068601;28;19924;-71
2022/06/11 08:20:32;;;;;;;;;;;;;;;-144.12;100.00;72078.50;5056569;28;20304;-69
2022/06/11 08:22:57;;;;;;;;;;;;;;;-144.12;100.00;72078.50;5054681;28;20388;-71
2022/06/11 08:25:23;;;;;;;;;;;;;;;-144.12;100.00;72078.50;5059602;28;19967;-71
2022/06/11 08:27:49;;;;;;;;;;;;;;;-144.12;100.00;72078.50;5070322;28;19924;-71
2022/06/11 08:30:16;;;;;;;;;;;;;;;-144.12;100.00;72078.50;5061070;28;19999;-71
2022/06/11 08:32:41;;;;;;;;;;;;;;;-144.12;100.00;72078.50;5058092;28;20055;-71
2022/06/11 08:35:07;;;;;;;;;;;;;;;-144.12;100.00;72078.50;5059615;28;20004;-71
2022/06/11 08:37:33;;;;;;;;;;;;;;;-144.12;100.00;72078.50;5054943;28;21495;-71
2022/06/11 08:40:00;;;;;;;;;;;;;;;-144.12;100.00;72078.50;5060598;28;19956;-71
2022/06/11 08:42:28;;;;;;;;;;;;;;;-144.12;100.00;72078.50;5054614;28;19964;-71
2022/06/11 08:44:54;;;;;;;;;;;;;;;-144.12;100.00;72078.50;5056842;28;20023;-72
2022/06/11 08:47:21;;;;;;;;;;;;;;;-144.12;100.00;72078.50;5067247;28;20074;-71
2022/06/11 08:49:50;;;;;;;;;;;;;;;-144.12;100.00;72078.50;5064159;28;19923;-71
2022/06/11 08:52:17;;;;;;;;;;;;;;;-144.12;100.00;72078.50;5058936;28;19916;-71
2022/06/11 08:54:44;;;;;;;;;;;;;;;-144.12;100.00;72078.50;5059494;28;19943;-71
2022/06/11 08:57:12;;;;;;;;;;;;;;;-144.12;100.00;72078.50;5059160;28;19921;-71
2022/06/11 08:59:54;;;;;;;;;;;;;;;-144.12;100.00;72078.50;5069993;28;19916;-68
2022/06/11 09:02:38;;;;;;;;;;;;;;;-144.12;100.00;72078.50;5061173;28;19939;-71
2022/06/11 09:05:13;;;;;;;;;;;;;;;-144.12;100.00;72078.50;5058559;28;20300;-70
2022/06/11 09:07:39;;;;;;;;;;;;;;;-144.12;100.00;72078.50;5065335;28;20301;-70
2022/06/11 09:10:27;;;;;;;;;;;;;;;-144.12;100.00;72078.50;5054820;28;19917;-70
2022/06/11 09:13:02;;;;;;;;;;;;;;;-144.12;100.00;72078.50;5037300;28;19920;-70
2022/06/11 09:15:35;;;;;;;;;;;;;;;-144.12;100.00;72078.50;5051458;28;19967;-70
2022/06/11 09:18:00;;;;;;;;;;;;;;;-144.12;100.00;72078.50;5057707;28;19917;-70
2022/06/11 09:20:25;;;;;;;;;;;;;;;-144.12;100.00;72078.50;5061454;28;19934;-68
2022/06/11 09:22:57;;;;;;;;;;;;;;;-144.12;100.00;72078.50;5058197;28;20465;-68
2022/06/11 09:25:41;;;;;;;;;;;;;;;-144.12;100.00;72078.50;5052499;28;19920;-68
2022/06/11 09:28:16;;;;;;;;;;;;;;;-144.12;100.00;72078.50;5050702;28;19932;-68
2022/06/11 09:30:43;;;;;;;;;;;;;;;-144.12;100.00;72078.50;5056119;28;19974;-68
2022/06/11 09:33:29;;;;;;;;;;;;;;;-144.12;100.00;72078.50;5063881;28;19924;-68
2022/06/11 09:36:01;;;;;;;;;;;;;;;-144.12;100.00;72078.50;5051702;28;19921;-68
2022/06/11 09:38:32;;;;;;;;;;;;;;;-144.12;100.00;72078.50;5052621;28;19917;-68
2022/06/11 09:41:09;;;;;;;;;;;;;;;-144.12;100.00;72078.50;5056307;28;19928;-69
2022/06/11 09:43:40;;;;;;;;;;;;;;;-144.12;100.00;72078.50;5053927;28;19962;-69
2022/06/11 09:46:11;;;;;;;;;;;;;;;-144.12;100.00;72078.50;5059864;28;19991;-69
2022/06/11 09:49:02;;;;;;;;;;;;;;;-144.12;100.00;72078.50;5058032;28;19924;-68
2022/06/11 09:51:38;;;;;;;;;;;;;;;-144.12;100.00;72078.50;5044382;28;19924;-68
2022/06/11 09:54:15;;;;;;;;;;;;;;;-144.12;100.00;72078.50;5060220;28;20291;-69
2022/06/11 09:56:41;;;;;;;;;;;;;;;-144.12;100.00;72078.50;5058317;28;19960;-69
2022/06/11 09:59:09;;;;;;;;;;;;;;;-144.12;100.00;72078.50;5060637;28;20379;-68
2022/06/11 10:01:42;;;;;;;;;;;;;;;-144.12;100.00;72078.50;5064261;28;20355;-69
2022/06/11 10:04:11;;;;;;;;;;;;;;;-144.12;100.00;72078.50;5056680;28;21427;-69
2022/06/11 10:06:48;;;;;;;;;;;;;;;-144.12;100.00;72078.50;5053297;28;19946;-69
2022/06/11 10:09:18;;;;;;;;;;;;;;;-144.12;100.00;72078.50;5061627;28;19952;-68
2022/06/11 10:11:46;;;;;;;;;;;;;;;-144.12;100.00;72078.50;5059104;28;19916;-68
2022/06/11 10:14:30;;;;;;;;;;;;;;;-144.12;100.00;72078.50;5063499;28;19924;-69
2022/06/11 10:17:02;;;;;;;;;;;;;;;-144.12;100.00;72078.50;5058931;28;19999;-69
2022/06/11 10:19:46;;;;;;;;;;;;;;;-144.12;100.00;72078.50;5062773;28;19927;-69
2022/06/11 10:22:15;;;;;;;;;;;;;;;-144.12;100.00;72078.50;5060787;28;19969;-69
2022/06/11 10:24:45;;;;;;;;;;;;;;;-144.12;100.00;72078.50;5058432;28;20007;-69
2022/06/11 10:27:13;;;;;;;;;;;;;;;-144.12;100.00;72078.50;5062136;28;19924;-70
2022/06/11 10:29:47;;;;;;;;;;;;;;;-144.12;100.00;72078.50;5069143;28;19924;-69
2022/06/11 10:32:15;;;;;;;;;;;;;;;-144.12;100.00;72078.50;5071078;28;19916;-70
2022/06/11 10:34:44;;;;;;;;;;;;;;;-144.12;100.00;72078.50;5064960;28;20023;-69
2022/06/11 10:37:23;;;;;;;;;;;;;;;-144.12;100.00;72078.50;5068342;28;19936;-69
2022/06/11 10:39:48;;;;;;;;;;;;;;;-144.12;100.00;72078.50;5055285;28;19920;-69
2022/06/11 10:42:14;;;;;;;;;;;;;;;-144.12;100.00;72078.50;5061043;28;20019;-70
2022/06/11 10:44:41;;;;;;;;;;;;;;;-144.12;100.00;72078.50;5053722;28;19932;-68
2022/06/11 10:47:27;;;;;;;;;;;;;;;-144.12;100.00;72078.50;5056626;28;19917;-69
2022/06/11 10:50:11;;;;;;;;;;;;;;;-144.12;100.00;72078.50;5056953;28;19916;-68
2022/06/11 10:52:55;;;;;;;;;;;;;;;-144.12;100.00;72078.50;5062664;28;19999;-69
2022/06/11 10:55:24;;;;;;;;;;;;;;;-144.12;100.00;72078.50;5062144;28;19917;-69
2022/06/11 10:57:50;;;;;;;;;;;;;;;-144.12;100.00;72078.50;5063559;28;19948;-69
2022/06/11 11:00:21;;;;;;;;;;;;;;;-144.12;100.00;72078.50;5062434;28;19920;-70
2022/06/11 11:02:53;;;;;;;;;;;;;;;-144.12;100.00;72078.50;5060657;28;20301;-69
2022/06/11 11:05:19;;;;;;;;;;;;;;;-144.12;100.00;72078.50;5065696;28;19983;-69
2022/06/11 11:07:45;;;;;;;;;;;;;;;-144.12;100.00;72078.50;5060401;28;19916;-70
2022/06/11 11:10:19;;;;;;;;;;;;;;;-144.12;100.00;72078.50;5060203;28;20003;-69
2022/06/11 11:12:45;;;;;;;;;;;;;;;-144.12;100.00;72078.50;5059769;28;19923;-69
2022/06/11 11:15:13;;;;;;;;;;;;;;;-144.12;100.00;72078.50;5063116;28;19917;-69
2022/06/11 11:17:44;;;;;;;;;;;;;;;-144.12;100.00;72078.50;5063123;28;19923;-69
2022/06/11 11:20:35;;;;;;;;;;;;;;;-144.12;100.00;72078.50;5071496;28;19921;-69
2022/06/11 11:23:13;;;;;;;;;;;;;;;-144.12;100.00;72078.50;5062120;28;19924;-69
2022/06/11 11:25:40;;;;;;;;;;;;;;;-144.12;100.00;72078.50;5059968;28;19917;-69
2022/06/11 11:28:14;;;;;;;;;;;;;;;-144.12;100.00;72078.50;5059035;28;20312;-69
2022/06/11 11:30:39;;;;;;;;;;;;;;;-144.12;100.00;72078.50;5065925;28;20499;-69
2022/06/11 11:33:13;;;;;;;;;;;;;;;-144.12;100.00;72078.50;5055614;28;19917;-69
2022/06/11 11:35:39;;;;;;;;;;;;;;;-144.12;100.00;72078.50;5060944;28;19917;-69
2022/06/11 11:38:10;;;;;;;;;;;;;;;-144.12;100.00;72078.50;5060447;28;19970;-69
2022/06/11 11:40:47;;;;;;;;;;;;;;;-144.12;100.00;72078.50;5063751;28;19964;-69
2022/06/11 11:43:14;;;;;;;;;;;;;;;-144.12;100.00;72078.50;5061090;28;19944;-69
2022/06/11 11:45:59;;;;;;;;;;;;;;;-144.12;100.00;72078.50;5062089;28;19974;-69
2022/06/11 11:48:24;;;;;;;;;;;;;;;-144.12;100.00;72078.50;5066263;28;20007;-69
2022/06/11 11:50:53;;;;;;;;;;;;;;;-144.12;100.00;72078.50;5066245;28;20007;-71
2022/06/11 11:53:21;;;;;;;;;;;;;;;-144.12;100.00;72078.50;5058303;28;19916;-69
2022/06/11 11:56:00;;;;;;;;;;;;;;;-144.12;100.00;72078.50;5060855;28;19924;-69
2022/06/11 11:58:37;;;;;;;;;;;;;;;-144.12;100.00;72078.50;5056565;28;19925;-69
2022/06/11 12:01:07;;;;;;;;;;;;;;;-144.12;100.00;72078.50;5066098;28;20396;-69
2022/06/11 12:03:40;;;;;;;;;;;;;;;-144.12;100.00;72078.50;5063406;28;20011;-69
2022/06/11 12:06:08;;;;;;;;;;;;;;;-144.12;100.00;72078.50;5056043;28;19924;-71
2022/06/11 12:08:41;;;;;;;;;;;;;;;-144.12;100.00;72078.50;5061146;28;19926;-71
2022/06/11 12:11:06;;;;;;;;;;;;;;;-144.12;100.00;72078.50;5062263;28;20621;-71
2022/06/11 12:13:42;;;;;;;;;;;;;;;-144.12;100.00;72078.50;5060632;28;19920;-71
2022/06/11 12:16:14;;;;;;;;;;;;;;;-144.12;100.00;72078.50;5080978;28;19916;-69
2022/06/11 12:18:45;;;;;;;;;;;;;;;-144.12;100.00;72078.50;5062223;28;19924;-69
2022/06/11 12:21:13;;;;;;;;;;;;;;;-144.12;100.00;72078.50;5060423;28;19921;-68
2022/06/11 12:23:42;;;;;;;;;;;;;;;-144.12;100.00;72078.50;5061877;28;19917;-69
2022/06/11 12:26:18;;;;;;;;;;;;;;;-144.12;100.00;72078.50;5055378;28;19925;-71
2022/06/11 12:28:43;;;;;;;;;;;;;;;-144.12;100.00;72078.50;5062630;28;19967;-71
2022/06/11 12:31:10;;;;;;;;;;;;;;;-144.12;100.00;72078.50;5060618;28;20304;-68
2022/06/11 12:33:41;;;;;;;;;;;;;;;-144.12;100.00;72078.50;5062741;28;19939;-71
2022/06/11 12:36:16;;;;;;;;;;;;;;;-144.12;100.00;72078.50;5056168;28;19985;-71